Time;durP1;ratioP1;P1;durP2;ratioP2;P2;SDS_P1;SDS_P2;PMS_P1;PMS_P2;Temp;Humidity;BMP_temperature;BMP_pressure;BME280_temperature;BME280_humidity;BME280_pressure;Samples;Min_cycle;Max_cycle;Signal;HPM_P1;HPM_P2
2024/04/02 00:01:52;;;;;;;5.65;2.58;;;25.80;46.00;;;;;;6154804;28;82667;-48
2024/04/02 00:04:52;;;;;;;6.25;1.67;;;25.80;46.00;;;;;;6154696;28;81265;-49
2024/04/02 00:07:53;;;;;;;3.50;1.52;;;25.80;46.00;;;;;;6155335;28;80250;-49
2024/04/02 00:10:53;;;;;;;3.88;1.67;;;25.80;46.00;;;;;;6169115;28;80564;-48
2024/04/02 00:13:54;;;;;;;7.38;2.45;;;25.80;46.00;;;;;;6154513;28;80215;-48
2024/04/02 00:16:54;;;;;;;7.00;2.22;;;25.70;46.10;;;;;;6154707;28;80447;-46
2024/04/02 00:19:55;;;;;;;5.72;2.00;;;25.80;46.10;;;;;;6154533;28;80254;-46
2024/04/02 00:22:55;;;;;;;5.18;2.03;;;25.80;46.20;;;;;;6155242;28;81077;-45
2024/04/02 00:25:56;;;;;;;9.43;2.33;;;25.80;46.20;;;;;;6154995;28;80434;-47
2024/04/02 00:28:57;;;;;;;4.15;1.63;;;25.80;46.20;;;;;;6155177;28;80507;-50
2024/04/02 00:31:57;;;;;;;4.15;1.63;;;25.80;46.30;;;;;;6173472;28;80664;-48
2024/04/02 00:34:58;;;;;;;4.88;1.85;;;25.80;46.30;;;;;;6155538;28;81733;-50
2024/04/02 00:37:58;;;;;;;4.25;1.48;;;25.80;46.30;;;;;;6152186;28;82786;-50
2024/04/02 00:40:59;;;;;;;3.70;1.73;;;25.70;46.40;;;;;;6160175;28;82297;-51
2024/04/02 00:43:59;;;;;;;3.13;1.42;;;25.70;46.40;;;;;;6159714;28;80523;-49
2024/04/02 00:47:00;;;;;;;1.92;1.00;;;25.70;46.40;;;;;;6153899;28;82002;-46
2024/04/02 00:50:00;;;;;;;3.90;1.48;;;25.70;46.50;;;;;;6156398;28;80889;-50
2024/04/02 00:53:01;;;;;;;2.28;1.10;;;25.70;46.60;;;;;;6166868;28;80527;-51
2024/04/02 00:56:01;;;;;;;1.58;1.13;;;25.70;46.60;;;;;;6154919;28;82076;-52
2024/04/02 00:59:02;;;;;;;6.75;1.58;;;25.70;46.60;;;;;;6154163;28;80672;-54
2024/04/02 01:02:02;;;;;;;1.83;1.08;;;25.70;46.50;;;;;;6156875;28;80986;-54
2024/04/02 01:05:05;;;;;;;4.32;1.20;;;25.70;46.50;;;;;;6154379;28;81194;-54
2024/04/02 01:08:05;;;;;;;2.75;1.23;;;25.70;46.50;;;;;;6166783;28;80870;-54
2024/04/02 01:11:06;;;;;;;1.52;1.10;;;25.70;46.50;;;;;;6154147;28;80518;-52
2024/04/02 01:14:06;;;;;;;3.97;1.52;;;25.70;46.50;;;;;;6154726;28;80911;-51
2024/04/02 01:17:07;;;;;;;3.10;1.15;;;25.70;46.50;;;;;;6153664;28;81401;-51
2024/04/02 01:20:07;;;;;;;4.57;1.15;;;25.70;46.60;;;;;;6153845;28;80761;-53
2024/04/02 01:23:08;;;;;;;1.80;0.80;;;25.70;46.60;;;;;;6154747;28;81146;-49
2024/04/02 01:26:08;;;;;;;4.82;1.58;;;25.70;46.50;;;;;;6153166;28;80780;-57
2024/04/02 01:29:09;;;;;;;2.35;1.10;;;25.70;46.50;;;;;;6155751;28;80359;-59
2024/04/02 01:32:09;;;;;;;1.50;0.90;;;25.70;46.60;;;;;;6161717;28;80735;-58
2024/04/02 01:35:13;;;;;;;1.05;0.70;;;25.70;46.60;;;;;;6163876;28;80714;-61
2024/04/02 01:38:14;;;;;;;1.60;0.80;;;25.70;46.50;;;;;;6157720;28;80446;-60
2024/04/02 01:41:15;;;;;;;2.65;1.40;;;25.70;46.90;;;;;;6154367;28;80883;-61
2024/04/02 01:44:15;;;;;;;2.17;0.88;;;25.70;46.90;;;;;;6165766;28;80463;-53
2024/04/02 01:47:16;;;;;;;1.10;1.00;;;25.70;46.60;;;;;;6159158;28;81525;-55
2024/04/02 01:50:16;;;;;;;1.70;0.70;;;25.70;46.70;;;;;;6155877;28;80990;-55
2024/04/02 01:53:17;;;;;;;2.25;0.95;;;25.70;46.70;;;;;;6152708;28;81132;-54
2024/04/02 01:56:17;;;;;;;2.28;0.90;;;25.70;46.50;;;;;;6153988;28;83040;-49
2024/04/02 01:59:18;;;;;;;1.48;1.10;;;25.70;46.70;;;;;;6164407;28;80755;-52
2024/04/02 02:02:18;;;;;;;1.80;0.90;;;25.70;46.80;;;;;;6154770;28;80834;-54
2024/04/02 02:05:19;;;;;;;2.20;1.00;;;25.70;46.60;;;;;;6159046;28;80768;-55
2024/04/02 02:08:19;;;;;;;2.13;0.75;;;25.70;46.60;;;;;;6173872;28;80423;-54
2024/04/02 02:11:20;;;;;;;2.25;1.10;;;25.70;46.50;;;;;;6155336;28;80776;-54
2024/04/02 02:14:20;;;;;;;2.17;1.25;;;25.70;46.50;;;;;;6163573;28;80330;-51
2024/04/02 02:17:21;;;;;;;0.57;0.55;;;25.70;46.50;;;;;;6153423;28;80596;-53
2024/04/02 02:20:21;;;;;;;1.27;0.85;;;25.70;46.60;;;;;;6152810;28;80312;-61
2024/04/02 02:23:22;;;;;;;1.65;0.70;;;25.70;46.80;;;;;;6161631;28;80421;-62
2024/04/02 02:26:23;;;;;;;1.38;0.70;;;25.70;46.60;;;;;;6171948;28;82228;-62
2024/04/02 02:29:25;;;;;;;0.90;0.70;;;25.70;47.00;;;;;;6168000;28;80720;-61
2024/04/02 02:32:25;;;;;;;1.10;0.80;;;25.70;46.80;;;;;;6155669;28;91043;-62
2024/04/02 02:35:26;;;;;;;1.95;0.60;;;25.70;46.60;;;;;;6175471;28;80102;-62
2024/04/02 02:38:26;;;;;;;0.77;0.63;;;25.70;46.70;;;;;;6158984;28;81260;-64
2024/04/02 02:41:27;;;;;;;1.38;0.80;;;25.70;47.00;;;;;;6176716;28;80587;-62
2024/04/02 02:44:28;;;;;;;0.60;0.60;;;25.70;46.50;;;;;;6164380;28;80593;-61
2024/04/02 02:47:28;;;;;;;1.05;0.73;;;25.70;46.60;;;;;;6151622;28;80536;-61
2024/04/02 02:50:29;;;;;;;2.25;1.02;;;25.70;47.00;;;;;;6168940;28;80308;-61
2024/04/02 02:53:29;;;;;;;0.85;0.70;;;25.70;46.60;;;;;;6161721;28;80503;-61
2024/04/02 02:56:30;;;;;;;0.85;0.85;;;25.70;46.60;;;;;;6178002;28;80435;-53
2024/04/02 02:59:30;;;;;;;0.68;0.60;;;25.70;46.70;;;;;;6165309;28;80627;-53
2024/04/02 03:02:31;;;;;;;0.75;0.60;;;25.70;46.60;;;;;;6160657;28;80396;-51
2024/04/02 03:05:31;;;;;;;0.60;0.60;;;25.70;46.70;;;;;;6161339;28;80571;-55
2024/04/02 03:08:32;;;;;;;1.35;0.65;;;25.70;46.70;;;;;;6165204;28;81397;-53
2024/04/02 03:11:32;;;;;;;1.33;0.60;;;25.70;46.70;;;;;;6166029;28;81947;-51
2024/04/02 03:14:33;;;;;;;1.23;0.50;;;25.70;46.70;;;;;;6159717;28;80711;-63
2024/04/02 03:17:33;;;;;;;0.50;0.50;;;25.70;46.60;;;;;;6158498;28;86091;-60
2024/04/02 03:20:34;;;;;;;0.85;0.60;;;25.70;46.90;;;;;;6168776;28;80432;-61
2024/04/02 03:23:34;;;;;;;1.15;0.75;;;25.70;47.30;;;;;;6169196;28;80400;-61
2024/04/02 03:26:35;;;;;;;0.90;0.50;;;25.70;47.00;;;;;;6166884;28;80896;-60
2024/04/02 03:29:35;;;;;;;0.40;0.40;;;25.70;47.00;;;;;;6176542;28;80467;-61
2024/04/02 03:32:36;;;;;;;1.10;0.70;;;25.70;46.90;;;;;;6174761;28;80604;-61
2024/04/02 03:35:37;;;;;;;0.60;0.60;;;25.70;46.90;;;;;;6164734;28;80461;-51
2024/04/02 03:38:37;;;;;;;0.38;0.38;;;25.70;46.90;;;;;;6158502;28;81169;-47
2024/04/02 03:41:37;;;;;;;0.50;0.50;;;25.60;46.80;;;;;;6159291;28;80586;-49
2024/04/02 03:44:38;;;;;;;0.68;0.50;;;25.70;46.90;;;;;;6160046;28;80679;-47
2024/04/02 03:47:38;;;;;;;0.52;0.52;;;25.70;46.90;;;;;;6169966;28;80385;-46
2024/04/02 03:50:39;;;;;;;0.50;0.40;;;25.70;46.80;;;;;;6158931;28;80360;-48
2024/04/02 03:53:39;;;;;;;0.35;0.35;;;25.60;46.70;;;;;;6159465;28;81650;-60
2024/04/02 03:56:40;;;;;;;2.38;1.02;;;25.60;46.70;;;;;;6159319;28;80466;-63
2024/04/02 03:59:40;;;;;;;3.10;0.75;;;25.60;46.70;;;;;;6158889;28;81002;-63
2024/04/02 04:02:41;;;;;;;0.50;0.50;;;25.60;46.70;;;;;;6160307;28;81863;-61
2024/04/02 04:05:41;;;;;;;1.90;0.40;;;25.70;46.60;;;;;;6166242;28;84026;-63
2024/04/02 04:08:42;;;;;;;2.33;0.85;;;25.70;46.60;;;;;;6158544;28;80377;-63
2024/04/02 04:11:42;;;;;;;1.45;0.50;;;25.70;46.50;;;;;;6160134;28;80450;-63
2024/04/02 04:14:43;;;;;;;0.55;0.55;;;25.60;46.40;;;;;;6157709;28;80406;-64
2024/04/02 04:17:43;;;;;;;1.38;0.75;;;25.60;46.70;;;;;;6155300;28;81466;-62
2024/04/02 04:20:44;;;;;;;6.63;0.93;;;25.60;46.60;;;;;;6168993;28;80401;-64
2024/04/02 04:23:45;;;;;;;4.55;0.60;;;25.60;47.20;;;;;;6163117;28;80459;-60
2024/04/02 04:26:45;;;;;;;3.17;0.60;;;25.60;47.30;;;;;;6172047;28;80448;-62
2024/04/02 04:29:46;;;;;;;4.90;0.90;;;25.60;48.00;;;;;;6156521;28;80598;-69
2024/04/02 04:32:46;;;;;;;2.55;0.70;;;25.70;47.90;;;;;;6168907;28;80453;-62
2024/04/02 04:35:47;;;;;;;4.68;0.68;;;25.60;48.10;;;;;;6166248;28;82190;-62
2024/04/02 04:38:47;;;;;;;6.15;0.98;;;25.70;48.20;;;;;;6158447;28;80580;-65
2024/04/02 04:41:48;;;;;;;5.50;1.20;;;25.70;48.20;;;;;;6155670;28;81445;-71
2024/04/02 04:44:49;;;;;;;3.83;0.82;;;25.70;48.10;;;;;;6158065;28;80642;-62
2024/04/02 04:47:49;;;;;;;0.93;0.80;;;25.70;48.10;;;;;;6178881;28;81209;-62
2024/04/02 04:50:50;;;;;;;3.60;0.80;;;25.70;48.00;;;;;;6169346;28;80660;-59
2024/04/02 04:53:50;;;;;;;5.97;0.70;;;25.70;48.00;;;;;;6156042;28;81932;-60
2024/04/02 04:56:51;;;;;;;4.50;0.90;;;25.60;47.70;;;;;;6150138;28;81966;-61
2024/04/02 04:59:51;;;;;;;4.97;1.17;;;25.60;47.80;;;;;;6153826;28;81449;-61
2024/04/02 05:02:52;;;;;;;2.15;0.77;;;25.60;47.70;;;;;;6154673;28;80577;-61
2024/04/02 05:05:52;;;;;;;3.22;1.02;;;25.60;47.90;;;;;;6159813;28;80349;-47
2024/04/02 05:08:53;;;;;;;6.00;1.10;;;25.50;47.70;;;;;;6151327;28;80411;-47
2024/04/02 05:11:53;;;;;;;1.45;0.70;;;25.50;47.70;;;;;;6152030;28;80357;-47
2024/04/02 05:14:54;;;;;;;2.35;0.80;;;25.50;47.70;;;;;;6149502;28;80164;-48
2024/04/02 05:17:54;;;;;;;2.03;0.75;;;25.50;47.60;;;;;;6147565;28;80914;-47
2024/04/02 05:20:55;;;;;;;1.30;0.95;;;25.50;47.50;;;;;;6161829;28;80561;-46
2024/04/02 05:23:55;;;;;;;2.70;0.70;;;25.50;47.50;;;;;;6150114;28;80495;-50
2024/04/02 05:26:56;;;;;;;5.18;1.05;;;25.50;47.40;;;;;;6156777;28;80561;-52
2024/04/02 05:29:56;;;;;;;1.33;0.88;;;25.40;47.00;;;;;;6161084;28;81377;-53
2024/04/02 05:32:57;;;;;;;1.52;0.68;;;25.40;46.70;;;;;;6153198;28;81082;-55
2024/04/02 05:35:58;;;;;;;2.72;1.10;;;25.40;46.70;;;;;;6149719;28;81950;-53
2024/04/02 05:38:58;;;;;;;3.65;1.10;;;25.30;46.50;;;;;;6146659;28;81639;-53
2024/04/02 05:41:59;;;;;;;3.03;0.93;;;25.30;46.50;;;;;;6152199;28;80686;-56
2024/04/02 05:45:00;;;;;;;4.57;1.60;;;25.20;46.50;;;;;;6153676;28;82231;-56
2024/04/02 05:48:00;;;;;;;6.40;0.93;;;25.20;46.40;;;;;;6154716;28;80721;-55
2024/04/02 05:51:01;;;;;;;4.78;1.00;;;25.10;46.30;;;;;;6153691;28;84839;-54
2024/04/02 05:54:01;;;;;;;3.53;1.45;;;25.10;46.30;;;;;;6163690;28;80454;-54
2024/04/02 05:57:02;;;;;;;2.92;1.00;;;25.10;46.20;;;;;;6158580;28;82401;-57
2024/04/02 06:00:05;;;;;;;1.35;0.80;;;25.10;46.10;;;;;;6153267;28;80573;-48
2024/04/02 06:03:12;;;;;;;2.88;1.10;;;25.10;46.20;;;;;;6159955;28;80168;-49
2024/04/02 06:06:13;;;;;;;1.98;1.00;;;25.10;46.10;;;;;;6167536;28;80889;-49
2024/04/02 06:09:13;;;;;;;2.45;1.13;;;25.00;45.90;;;;;;6151169;28;81809;-47
2024/04/02 06:12:14;;;;;;;3.35;0.82;;;25.00;45.90;;;;;;6154022;28;81064;-47
2024/04/02 06:15:14;;;;;;;9.30;1.10;;;25.00;45.80;;;;;;6161711;28;81380;-48
2024/04/02 06:18:15;;;;;;;1.77;0.95;;;25.00;45.80;;;;;;6157744;28;80926;-49
2024/04/02 06:21:17;;;;;;;0.90;0.65;;;25.00;45.70;;;;;;6153681;28;80458;-49
2024/04/02 06:24:18;;;;;;;2.17;0.90;;;25.00;45.80;;;;;;6148113;28;81943;-49
2024/04/02 06:27:18;;;;;;;0.80;0.75;;;24.90;46.00;;;;;;6153138;28;80526;-48
2024/04/02 06:30:19;;;;;;;1.95;0.60;;;25.00;45.90;;;;;;6152340;28;80547;-48
2024/04/02 06:33:19;;;;;;;1.15;0.90;;;24.90;45.90;;;;;;6147274;28;80426;-47
2024/04/02 06:36:20;;;;;;;3.95;0.73;;;24.90;45.80;;;;;;6134492;28;82148;-50
2024/04/02 06:39:20;;;;;;;1.20;0.90;;;24.90;45.80;;;;;;6145141;28;80352;-49
2024/04/02 06:42:21;;;;;;;1.58;0.88;;;24.90;46.50;;;;;;6133497;28;81557;-48
2024/04/02 06:45:22;;;;;;;4.72;1.58;;;24.90;45.80;;;;;;6158840;28;81433;-48
2024/04/02 06:48:22;;;;;;;5.82;1.30;;;24.90;45.80;;;;;;6157261;28;83517;-50
2024/04/02 06:51:23;;;;;;;4.03;1.10;;;24.90;45.90;;;;;;6157389;28;81695;-49
2024/04/02 06:54:23;;;;;;;3.83;0.90;;;24.80;46.90;;;;;;6160568;28;80262;-51
2024/04/02 06:57:24;;;;;;;2.97;1.08;;;24.80;46.40;;;;;;6153511;28;81057;-56
2024/04/02 07:00:24;;;;;;;2.28;1.00;;;24.80;46.50;;;;;;6153934;28;83480;-49
2024/04/02 07:03:26;;;;;;;1.67;0.90;;;24.80;46.40;;;;;;6160024;28;80216;-52
2024/04/02 07:06:27;;;;;;;1.77;0.93;;;24.80;46.30;;;;;;6155139;28;80673;-54
2024/04/02 07:09:29;;;;;;;1.30;0.90;;;24.80;46.20;;;;;;6153063;28;80722;-54
2024/04/02 07:12:30;;;;;;;2.03;0.90;;;24.80;46.30;;;;;;6162255;28;80804;-50
2024/04/02 07:15:30;;;;;;;3.83;0.90;;;24.80;46.20;;;;;;6155268;28;81202;-53
2024/04/02 07:18:37;;;;;;;3.28;1.30;;;24.80;46.40;;;;;;6159530;28;80467;-55
2024/04/02 07:21:38;;;;;;;2.42;1.00;;;24.80;46.20;;;;;;6152629;28;81426;-51
2024/04/02 07:24:38;;;;;;;3.42;1.10;;;24.80;46.40;;;;;;6153076;28;80458;-57
2024/04/02 07:27:40;;;;;;;3.83;1.17;;;24.80;46.20;;;;;;6151855;28;80739;-57
2024/04/02 07:30:41;;;;;;;2.20;1.00;;;24.80;46.00;;;;;;6159836;28;81000;-50
2024/04/02 07:33:41;;;;;;;1.85;1.00;;;24.80;46.10;;;;;;6157383;28;81328;-54
2024/04/02 07:36:44;;;;;;;1.23;0.90;;;24.80;46.00;;;;;;6158329;28;80972;-53
2024/04/02 07:39:44;;;;;;;1.92;0.90;;;24.80;46.20;;;;;;6163245;28;80358;-53
2024/04/02 07:42:45;;;;;;;1.75;0.95;;;24.90;46.40;;;;;;6157045;28;80798;-53
2024/04/02 07:45:45;;;;;;;1.38;0.80;;;24.90;46.30;;;;;;6157198;28;80907;-52
2024/04/02 07:48:46;;;;;;;1.27;0.90;;;24.90;46.60;;;;;;6157436;28;80235;-54
2024/04/02 07:51:46;;;;;;;1.63;0.93;;;24.80;46.30;;;;;;6156275;28;80491;-55
2024/04/02 07:54:47;;;;;;;1.85;0.90;;;24.80;46.00;;;;;;6155725;28;80744;-52
2024/04/02 07:57:47;;;;;;;5.93;1.35;;;24.80;46.10;;;;;;6156205;28;80427;-55
2024/04/02 08:00:48;;;;;;;1.55;0.93;;;24.80;45.60;;;;;;6157302;28;80430;-55
2024/04/02 08:03:48;;;;;;;0.90;0.80;;;24.80;45.90;;;;;;6154101;28;80596;-54
2024/04/02 08:06:49;;;;;;;2.20;1.13;;;24.80;45.60;;;;;;6153965;28;82341;-51
2024/04/02 08:09:50;;;;;;;1.55;1.00;;;24.70;46.00;;;;;;6155664;28;80531;-48
2024/04/02 08:12:50;;;;;;;0.90;0.77;;;24.70;45.60;;;;;;6162568;28;80543;-51
2024/04/02 08:15:51;;;;;;;2.55;1.05;;;24.70;45.50;;;;;;6154068;28;80669;-54
2024/04/02 08:18:51;;;;;;;1.45;0.95;;;24.70;45.60;;;;;;6164311;28;80629;-54
2024/04/02 08:21:52;;;;;;;3.25;1.13;;;24.60;45.40;;;;;;6163689;28;81334;-48
2024/04/02 08:24:55;;;;;;;3.00;0.90;;;24.60;45.40;;;;;;6164360;28;81682;-48
2024/04/02 08:27:56;;;;;;;1.27;0.90;;;24.60;45.60;;;;;;6153504;28;82252;-59
2024/04/02 08:30:56;;;;;;;1.02;0.82;;;24.70;45.50;;;;;;6154615;28;81832;-59
2024/04/02 08:33:57;;;;;;;0.50;0.50;;;24.70;45.50;;;;;;6154718;28;82462;-59
2024/04/02 08:36:59;;;;;;;1.67;0.93;;;24.70;45.50;;;;;;6165027;28;81477;-59
2024/04/02 08:39:59;;;;;;;1.23;0.85;;;24.70;45.30;;;;;;6160855;28;80273;-59
2024/04/02 08:43:00;;;;;;;1.02;0.80;;;24.80;45.20;;;;;;6167037;28;81677;-60
2024/04/02 08:46:00;;;;;;;0.65;0.60;;;24.80;45.20;;;;;;6168269;28;80386;-50
2024/04/02 08:49:01;;;;;;;1.65;0.93;;;24.80;45.00;;;;;;6158445;28;80513;-49
2024/04/02 08:52:01;;;;;;;1.80;1.00;;;24.80;45.00;;;;;;6162660;28;82584;-49
2024/04/02 08:55:02;;;;;;;2.22;0.90;;;24.90;45.00;;;;;;6161449;28;81585;-48
2024/04/02 08:58:04;;;;;;;1.48;0.80;;;24.80;44.80;;;;;;6166707;28;80674;-53
2024/04/02 09:01:05;;;;;;;0.95;0.77;;;24.90;44.80;;;;;;6152594;28;81200;-51
2024/04/02 09:04:05;;;;;;;0.80;0.80;;;24.90;44.70;;;;;;6154727;28;81914;-58
2024/04/02 09:07:06;;;;;;;0.75;0.75;;;24.90;44.70;;;;;;6172049;28;80726;-58
2024/04/02 09:10:06;;;;;;;0.82;0.70;;;24.90;44.60;;;;;;6166654;28;81147;-59
2024/04/02 09:13:07;;;;;;;2.85;0.80;;;24.80;44.40;;;;;;6162436;28;81092;-58
2024/04/02 09:16:07;;;;;;;2.65;0.98;;;24.90;44.50;;;;;;6164990;28;80583;-59
2024/04/02 09:19:08;;;;;;;2.42;1.10;;;24.90;44.40;;;;;;6175146;28;80483;-59
2024/04/02 09:22:08;;;;;;;1.25;1.00;;;24.90;44.30;;;;;;6162254;28;80262;-54
2024/04/02 09:25:09;;;;;;;4.95;1.38;;;24.90;44.30;;;;;;6155667;28;80602;-55
2024/04/02 09:28:09;;;;;;;1.80;1.15;;;24.90;44.50;;;;;;6157241;28;83080;-54
2024/04/02 09:31:10;;;;;;;3.30;0.90;;;24.90;44.30;;;;;;6165735;28;85769;-53
2024/04/02 09:34:10;;;;;;;3.25;1.63;;;24.90;44.50;;;;;;6161262;28;80708;-55
2024/04/02 09:37:11;;;;;;;1.52;1.17;;;25.00;44.40;;;;;;6149825;28;85120;-56
2024/04/02 09:40:11;;;;;;;2.50;0.85;;;25.00;44.50;;;;;;6165996;28;80981;-51
2024/04/02 09:43:13;;;;;;;2.65;1.10;;;25.00;44.40;;;;;;6164686;28;81293;-50
2024/04/02 09:46:13;;;;;;;1.92;1.10;;;25.00;44.60;;;;;;6146094;28;85005;-53
2024/04/02 09:49:14;;;;;;;1.83;1.00;;;25.00;44.70;;;;;;6169936;28;80310;-51
2024/04/02 09:52:15;;;;;;;2.53;1.02;;;25.10;44.70;;;;;;6156821;28;80311;-51
2024/04/02 09:55:15;;;;;;;3.22;0.98;;;25.10;44.70;;;;;;6155358;28;80339;-50
2024/04/02 09:58:16;;;;;;;1.25;0.85;;;25.10;44.80;;;;;;6169863;28;80649;-50
2024/04/02 10:01:17;;;;;;;1.38;1.27;;;25.10;44.80;;;;;;6157925;28;80499;-52
2024/04/02 10:04:20;;;;;;;2.50;1.05;;;25.10;44.80;;;;;;6161531;28;80800;-51
2024/04/02 10:07:21;;;;;;;1.02;0.90;;;25.10;44.70;;;;;;6153573;28;85513;-49
2024/04/02 10:10:22;;;;;;;0.90;0.90;;;25.10;44.80;;;;;;6157813;28;81689;-48
2024/04/02 10:13:22;;;;;;;1.95;0.98;;;25.10;44.90;;;;;;6158866;28;81268;-50
2024/04/02 10:16:23;;;;;;;2.70;0.82;;;25.20;44.90;;;;;;6148537;28;80956;-48
2024/04/02 10:19:25;;;;;;;1.33;0.80;;;25.10;44.80;;;;;;6160660;28;88566;-48
2024/04/02 10:22:25;;;;;;;1.38;1.00;;;25.20;44.90;;;;;;6153981;28;80379;-48
2024/04/02 10:25:26;;;;;;;1.15;1.00;;;25.20;44.90;;;;;;6153941;28;80308;-50
2024/04/02 10:28:27;;;;;;;2.42;1.02;;;25.20;45.00;;;;;;6150563;28;80757;-48
2024/04/02 10:31:27;;;;;;;1.00;0.82;;;25.20;44.90;;;;;;6156372;28;80758;-46
2024/04/02 10:34:29;;;;;;;1.23;1.10;;;25.20;45.00;;;;;;6163315;28;80476;-50
2024/04/02 10:37:29;;;;;;;0.90;0.90;;;25.20;45.10;;;;;;6165529;28;80482;-55
2024/04/02 10:40:31;;;;;;;3.65;1.58;;;25.20;45.00;;;;;;6165997;28;80437;-54
2024/04/02 10:43:32;;;;;;;1.83;1.10;;;25.20;45.20;;;;;;6149345;28;80863;-54
2024/04/02 10:46:32;;;;;;;1.80;1.00;;;25.20;45.20;;;;;;6154967;28;80583;-52
2024/04/02 10:49:33;;;;;;;1.70;1.15;;;25.20;45.20;;;;;;6154429;28;80758;-53
2024/04/02 10:52:33;;;;;;;3.42;1.17;;;25.20;45.20;;;;;;6164296;28;82562;-52
2024/04/02 10:55:34;;;;;;;1.65;0.90;;;25.20;45.20;;;;;;6156292;28;80602;-54
2024/04/02 10:58:36;;;;;;;1.23;1.00;;;25.20;45.10;;;;;;6149443;28;81435;-54
2024/04/02 11:01:37;;;;;;;1.38;1.00;;;25.20;45.40;;;;;;6158834;28;80858;-52
2024/04/02 11:04:37;;;;;;;1.30;1.00;;;25.20;45.60;;;;;;6164506;28;81572;-54
2024/04/02 11:07:38;;;;;;;2.67;1.33;;;25.20;45.60;;;;;;6152550;28;80824;-54
2024/04/02 11:10:38;;;;;;;2.08;1.17;;;25.20;45.70;;;;;;6158438;28;80324;-52
2024/04/02 11:13:39;;;;;;;2.08;1.13;;;25.20;45.90;;;;;;6150719;28;80415;-51
2024/04/02 11:16:39;;;;;;;4.13;1.33;;;25.30;46.20;;;;;;6162433;28;83988;-55
2024/04/02 11:19:40;;;;;;;2.88;1.25;;;25.30;46.10;;;;;;6152498;28;80521;-50
2024/04/02 11:25:59;;;;;;;3.83;1.17;;;25.30;46.10;;;;;;6158222;28;81610;-49
2024/04/02 11:29:00;;;;;;;4.38;1.17;;;25.30;46.10;;;;;;6165862;28;80541;-50
2024/04/02 11:32:00;;;;;;;4.30;1.10;;;25.20;46.00;;;;;;6165965;28;80940;-48
2024/04/02 11:35:01;;;;;;;5.93;1.48;;;25.20;45.80;;;;;;6167592;28;83759;-49
2024/04/02 11:38:01;;;;;;;3.08;1.10;;;25.20;45.90;;;;;;6156247;28;82813;-49
2024/04/02 11:41:05;;;;;;;1.95;1.20;;;25.30;46.10;;;;;;6155330;28;80311;-49
2024/04/02 11:44:06;;;;;;;3.95;1.92;;;25.20;45.90;;;;;;6161301;28;80683;-50
2024/04/02 11:47:07;;;;;;;1.25;1.00;;;25.20;45.80;;;;;;6160207;28;81285;-52
2024/04/02 11:50:08;;;;;;;3.53;1.20;;;25.20;45.90;;;;;;6155545;28;80931;-55
2024/04/02 11:53:08;;;;;;;3.00;1.15;;;25.30;45.90;;;;;;6156426;28;80121;-49
2024/04/02 11:56:09;;;;;;;1.35;1.05;;;25.30;45.90;;;;;;6153772;28;80821;-51
2024/04/02 12:02:29;;;;;;;1.50;1.17;;;25.30;45.80;;;;;;6157408;28;80531;-50
2024/04/02 12:05:29;;;;;;;2.55;1.40;;;25.30;45.70;;;;;;6156670;28;80257;-54
2024/04/02 12:08:30;;;;;;;1.85;1.30;;;25.30;45.60;;;;;;6162814;28;81306;-63
2024/04/02 12:11:30;;;;;;;2.35;1.30;;;25.30;45.60;;;;;;6160616;28;81564;-62
2024/04/02 12:14:31;;;;;;;1.17;1.02;;;25.30;45.50;;;;;;6157851;28;82101;-62
2024/04/02 12:17:31;;;;;;;3.80;1.23;;;25.30;45.50;;;;;;6153765;28;80902;-62
2024/04/02 12:20:32;;;;;;;4.47;1.13;;;25.30;45.80;;;;;;6155851;28;81320;-58
2024/04/02 12:23:32;;;;;;;2.20;1.40;;;25.30;45.80;;;;;;6157323;28;80428;-59
2024/04/02 12:26:33;;;;;;;1.67;1.00;;;25.30;46.00;;;;;;6155502;28;80642;-54
2024/04/02 12:29:33;;;;;;;5.30;1.42;;;25.30;45.90;;;;;;6168371;28;80467;-54
2024/04/02 12:32:34;;;;;;;4.43;1.30;;;25.20;45.60;;;;;;6157713;28;80819;-54
2024/04/02 12:35:35;;;;;;;1.52;1.13;;;25.20;45.60;;;;;;6162813;28;80528;-51
2024/04/02 12:38:36;;;;;;;0.90;0.90;;;25.30;45.70;;;;;;6156831;28;80305;-53
2024/04/02 12:41:37;;;;;;;1.70;1.30;;;25.20;45.50;;;;;;6157861;28;82281;-53
2024/04/02 12:44:39;;;;;;;2.75;1.25;;;25.20;45.50;;;;;;6159161;28;81011;-59
2024/04/02 12:47:41;;;;;;;5.07;1.52;;;25.20;45.50;;;;;;6153277;28;80477;-49
2024/04/02 12:50:41;;;;;;;4.38;1.58;;;25.30;45.90;;;;;;6154590;28;80620;-54
2024/04/02 12:53:42;;;;;;;2.85;1.45;;;25.20;45.80;;;;;;6163238;28;80659;-49
2024/04/02 12:56:42;;;;;;;7.30;1.73;;;25.30;45.80;;;;;;6159010;28;82670;-47
2024/04/02 12:59:43;;;;;;;7.45;2.15;;;25.30;46.40;;;;;;6166004;28;83305;-54
2024/04/02 13:02:43;;;;;;;4.15;1.67;;;25.30;46.80;;;;;;6153131;28;80655;-53
2024/04/02 13:05:44;;;;;;;7.55;1.73;;;25.30;46.60;;;;;;6170684;28;80585;-53
2024/04/02 13:08:46;;;;;;;5.82;1.40;;;25.40;47.20;;;;;;6151471;28;80475;-54
2024/04/02 13:11:47;;;;;;;5.25;1.73;;;25.40;47.20;;;;;;6155773;28;80405;-57
2024/04/02 13:14:47;;;;;;;4.75;1.30;;;25.40;47.50;;;;;;6167389;28;82162;-56
2024/04/02 13:17:48;;;;;;;1.92;1.15;;;25.40;47.40;;;;;;6169427;28;80316;-55
2024/04/02 13:20:52;;;;;;;4.95;1.45;;;25.40;47.50;;;;;;6150897;28;81113;-56
2024/04/02 13:23:54;;;;;;;3.00;1.75;;;25.40;47.60;;;;;;6155551;28;81053;-55
2024/04/02 13:26:55;;;;;;;5.82;1.80;;;25.40;47.30;;;;;;6155009;28;82692;-54
2024/04/02 13:29:55;;;;;;;4.32;1.40;;;25.40;47.40;;;;;;6154474;28;82378;-54
2024/04/02 13:32:56;;;;;;;3.63;1.50;;;25.40;47.50;;;;;;6161937;28;81051;-54
2024/04/02 13:35:57;;;;;;;3.28;1.73;;;25.40;47.50;;;;;;6153369;28;80428;-54
2024/04/02 13:38:57;;;;;;;4.82;2.30;;;25.50;47.50;;;;;;6162398;28;80147;-53
2024/04/02 13:41:58;;;;;;;2.75;1.58;;;25.50;47.20;;;;;;6168706;28;81244;-54
2024/04/02 13:44:59;;;;;;;9.95;1.80;;;25.50;47.20;;;;;;6162486;28;80888;-52
2024/04/02 13:47:59;;;;;;;4.85;1.92;;;25.50;46.90;;;;;;6153935;28;81338;-54
2024/04/02 13:51:00;;;;;;;4.15;1.55;;;25.50;47.00;;;;;;6160977;28;81453;-55
2024/04/02 13:54:00;;;;;;;4.70;2.08;;;25.50;47.00;;;;;;6157760;28;81289;-54
2024/04/02 13:57:01;;;;;;;2.85;1.98;;;25.50;47.00;;;;;;6127168;28;87319;-54
2024/04/02 14:00:01;;;;;;;3.97;2.05;;;25.50;46.70;;;;;;6157257;28;81437;-51
2024/04/02 14:03:02;;;;;;;3.88;2.20;;;25.50;46.70;;;;;;6159361;28;82170;-48
2024/04/02 14:06:05;;;;;;;3.38;1.80;;;25.50;46.90;;;;;;6163626;28;80377;-49
2024/04/02 14:09:06;;;;;;;4.45;1.92;;;25.50;46.70;;;;;;6155032;28;83044;-50
2024/04/02 14:12:07;;;;;;;7.18;1.60;;;25.50;46.50;;;;;;6155349;28;81023;-53
2024/04/02 14:15:07;;;;;;;2.53;1.65;;;25.50;46.60;;;;;;6152968;28;82132;-50
2024/04/02 14:18:07;;;;;;;3.08;1.48;;;25.50;46.50;;;;;;6137157;28;80013;-53
2024/04/02 14:21:08;;;;;;;8.38;2.33;;;25.50;46.60;;;;;;6126659;28;80837;-56
2024/04/02 14:24:09;;;;;;;4.93;2.17;;;25.50;46.70;;;;;;6137502;28;81203;-56
2024/04/02 14:27:10;;;;;;;3.58;1.92;;;25.50;46.80;;;;;;6132961;28;80085;-52
2024/04/02 14:30:10;;;;;;;3.00;1.65;;;25.50;47.10;;;;;;6130273;28;80206;-55
2024/04/02 14:33:11;;;;;;;2.42;1.65;;;25.50;47.20;;;;;;6128695;28;80238;-56
2024/04/02 14:36:11;;;;;;;4.80;1.50;;;25.50;47.00;;;;;;6135428;28;84807;-51
2024/04/02 14:39:12;;;;;;;2.30;1.67;;;25.50;47.00;;;;;;6141974;28;80995;-47
2024/04/02 14:42:12;;;;;;;2.42;1.42;;;25.50;47.00;;;;;;6139522;28;80982;-49
2024/04/02 14:45:13;;;;;;;2.10;1.42;;;25.50;47.10;;;;;;6140033;28;80720;-47
2024/04/02 14:48:14;;;;;;;26.13;2.10;;;25.50;47.60;;;;;;6134260;28;81249;-50
2024/04/02 14:51:14;;;;;;;1.83;1.35;;;25.50;47.30;;;;;;6134759;28;80712;-48
2024/04/02 14:54:15;;;;;;;2.38;1.35;;;25.50;47.10;;;;;;6130966;28;80923;-56
2024/04/02 14:57:15;;;;;;;5.93;1.77;;;25.50;47.20;;;;;;6133482;28;82532;-58
2024/04/02 15:00:17;;;;;;;3.28;1.80;;;25.50;47.30;;;;;;6145972;28;80342;-58
2024/04/02 15:03:18;;;;;;;2.67;1.52;;;25.50;47.10;;;;;;6129682;28;80673;-58
2024/04/02 15:06:18;;;;;;;1.98;1.35;;;25.40;46.90;;;;;;6136937;28;80902;-58
2024/04/02 15:09:19;;;;;;;3.17;1.60;;;25.40;46.80;;;;;;6136830;28;80635;-56
2024/04/02 15:12:19;;;;;;;1.75;1.20;;;25.40;46.80;;;;;;6140414;28;81003;-50
2024/04/02 15:15:20;;;;;;;4.32;1.98;;;25.40;46.80;;;;;;6131582;28;80646;-50
2024/04/02 15:18:20;;;;;;;3.33;1.60;;;25.40;46.70;;;;;;6143206;28;80762;-51
2024/04/02 15:21:21;;;;;;;2.63;1.42;;;25.40;46.50;;;;;;6128683;28;80805;-51
2024/04/02 15:24:25;;;;;;;1.88;1.15;;;25.30;46.40;;;;;;6132969;28;80523;-55
2024/04/02 15:27:26;;;;;;;2.40;1.23;;;25.30;46.40;;;;;;6130873;28;82794;-54
2024/04/02 15:30:26;;;;;;;7.07;1.52;;;25.30;46.40;;;;;;6136737;28;81950;-54
2024/04/02 15:33:27;;;;;;;4.20;1.80;;;25.30;46.30;;;;;;6128704;28;80938;-50
2024/04/02 15:36:28;;;;;;;1.48;1.17;;;25.30;46.30;;;;;;6134487;28;80248;-56
2024/04/02 15:39:28;;;;;;;4.70;1.50;;;25.30;46.30;;;;;;6151204;28;82448;-54
2024/04/02 15:42:29;;;;;;;1.63;1.10;;;25.30;46.20;;;;;;6127974;28;80887;-53
2024/04/02 15:45:29;;;;;;;2.38;1.42;;;25.20;46.20;;;;;;6138342;28;81081;-51
2024/04/02 15:48:30;;;;;;;3.50;1.25;;;25.20;46.10;;;;;;6128982;28;80946;-49